aviador You're here:

KLPR Decoded Metar

LORAIN/ELYRIA in OH, USA
Report Time2017-08-24 00:53:00
UTC Time2017-08-24 01:08:17
Flight Rules vfr VFR
Wind240° at 03 kt
W.Decomp.*RWY 25: 3.0 kt HW 0.3 kt LCW
W.Rank240° ranks 9
Current wind is below 240° avg. (9.4)
Visibility9999 m
Phenomena:N/A
Clouds:Few 060 Hf
Overcast 085 Hf
Expected CloudBase > 1,600 ft AGL from Temp-Dew spread
Ceiling8,500 ft
Temp18°C (ISA +5)
Dew Point14°C (78% RH)
QNH1015 hPa
Density Alt1,476 ft
Elevation791 ft
Report Wrong Elevation
Raw Report
METAR KLPR 240053Z AUTO 24003KT 10SM FEW060 OVC085 18/14 A2996 RMK
AO2 SLP144 T01830144=

Extra information for KLPR:More info

Metar Taf Metar & Taf Last 4 Metars F.Rules Stats Wind Profile Meteogram Temp Stats Airport Information Weather charts Add Link Nearby VenuesMetar ALERT Operation Metar Decoded Social comments

AIRNAV info for KLPR